Time;durP1;ratioP1;P1;durP2;ratioP2;P2;SDS_P1;SDS_P2;PMS_P1;PMS_P2;Temp;Humidity;BMP_temperature;BMP_pressure;BME280_temperature;BME280_humidity;BME280_pressure;Samples;Min_cycle;Max_cycle;Signal;HPM_P1;HPM_P2
2022/03/30 00:01:07;;;;;;;38.58;27.95;;;15.60;63.10;;;;;;4975402;28;20025;-63
2022/03/30 00:03:33;;;;;;;34.55;28.05;;;15.60;63.20;;;;;;4975416;28;20420;-61
2022/03/30 00:05:58;;;;;;;33.20;26.70;;;15.60;63.20;;;;;;4974975;28;20463;-62
2022/03/30 00:08:24;;;;;;;37.40;26.92;;;15.60;63.20;;;;;;4975329;28;20070;-62
2022/03/30 00:10:49;;;;;;;36.17;28.75;;;15.60;63.10;;;;;;4975271;28;20082;-62
2022/03/30 00:13:15;;;;;;;36.72;27.52;;;15.60;63.20;;;;;;4975452;28;20483;-61
2022/03/30 00:15:41;;;;;;;33.60;25.63;;;15.60;63.10;;;;;;4975235;28;20585;-57
2022/03/30 00:18:07;;;;;;;30.90;26.23;;;15.60;63.20;;;;;;4975343;28;20488;-62
2022/03/30 00:20:32;;;;;;;35.15;26.00;;;15.60;63.20;;;;;;4974601;28;20034;-62
2022/03/30 00:22:58;;;;;;;33.65;25.80;;;15.50;63.30;;;;;;4975176;28;20070;-62
2022/03/30 00:25:24;;;;;;;32.13;25.42;;;15.50;63.30;;;;;;4974991;28;20035;-58
2022/03/30 00:27:49;;;;;;;29.92;26.23;;;15.50;63.30;;;;;;4974873;28;20031;-59
2022/03/30 00:30:17;;;;;;;36.67;26.10;;;15.40;63.40;;;;;;4975195;28;20125;-62
2022/03/30 00:32:43;;;;;;;34.40;26.27;;;15.40;63.50;;;;;;4974863;28;20026;-58
2022/03/30 00:35:09;;;;;;;32.67;25.17;;;15.40;63.50;;;;;;4974949;28;20023;-62
2022/03/30 00:37:36;;;;;;;33.95;25.35;;;15.40;63.60;;;;;;4974762;28;20078;-60
2022/03/30 00:40:04;;;;;;;33.67;25.48;;;15.30;63.50;;;;;;4975090;28;20031;-59
2022/03/30 00:42:29;;;;;;;38.58;26.10;;;15.30;63.60;;;;;;4974607;28;20030;-58
2022/03/30 00:44:55;;;;;;;33.28;24.75;;;15.30;63.60;;;;;;4974828;28;20034;-62
2022/03/30 00:47:24;;;;;;;31.40;25.73;;;15.30;63.70;;;;;;4974424;28;20039;-61
2022/03/30 00:49:51;;;;;;;36.40;24.83;;;15.20;63.70;;;;;;4974226;28;20054;-62
2022/03/30 00:52:17;;;;;;;34.25;24.67;;;15.20;63.70;;;;;;4974550;28;20078;-61
2022/03/30 00:54:47;;;;;;;33.92;24.35;;;15.20;63.80;;;;;;4957318;28;20019;-62
2022/03/30 00:57:14;;;;;;;32.72;24.73;;;15.20;63.80;;;;;;4974613;28;20077;-62
2022/03/30 00:59:41;;;;;;;32.83;24.83;;;15.20;63.90;;;;;;4974387;28;20114;-62
2022/03/30 01:02:07;;;;;;;31.15;23.90;;;15.20;63.80;;;;;;4956916;28;20440;-61
2022/03/30 01:04:33;;;;;;;33.38;25.52;;;15.20;63.80;;;;;;4974263;28;20027;-62
2022/03/30 01:06:59;;;;;;;30.45;24.25;;;15.30;63.80;;;;;;4974819;28;20050;-63
2022/03/30 01:09:25;;;;;;;35.25;23.23;;;15.20;63.80;;;;;;4974389;28;20499;-58
2022/03/30 01:11:54;;;;;;;27.17;23.10;;;15.20;63.90;;;;;;4974459;28;20015;-61
2022/03/30 01:14:20;;;;;;;34.92;25.15;;;15.20;63.90;;;;;;4974416;28;20507;-62
2022/03/30 01:16:46;;;;;;;30.05;22.55;;;15.10;63.80;;;;;;4974063;28;20488;-62
2022/03/30 01:19:12;;;;;;;28.40;22.95;;;15.10;63.90;;;;;;4974242;28;20505;-62
2022/03/30 01:21:39;;;;;;;29.25;22.70;;;15.10;64.10;;;;;;4974208;28;20476;-63
2022/03/30 01:24:08;;;;;;;29.58;22.67;;;15.10;64.00;;;;;;4974308;28;20045;-63
2022/03/30 01:26:34;;;;;;;30.77;22.50;;;15.10;64.00;;;;;;4974409;28;20365;-62
2022/03/30 01:29:00;;;;;;;31.38;23.67;;;15.10;63.90;;;;;;4974267;28;20388;-62
2022/03/30 01:34:10;;;;;;;32.72;23.55;;;15.00;64.10;;;;;;4974299;28;20042;-62
2022/03/30 01:36:35;;;;;;;28.13;21.15;;;15.00;64.30;;;;;;4974124;28;20026;-62
2022/03/30 01:39:05;;;;;;;30.30;22.23;;;15.00;64.30;;;;;;4974199;28;20019;-62
2022/03/30 01:41:31;;;;;;;29.67;22.63;;;15.00;64.30;;;;;;4974092;28;20074;-62
2022/03/30 01:43:57;;;;;;;31.60;22.15;;;15.00;64.30;;;;;;4974032;28;20023;-62
2022/03/30 01:46:23;;;;;;;31.23;22.30;;;15.00;64.40;;;;;;4973668;28;20630;-62
2022/03/30 01:48:49;;;;;;;34.50;23.27;;;15.00;64.30;;;;;;4973914;28;20039;-60
2022/03/30 01:51:15;;;;;;;32.58;22.90;;;15.10;64.30;;;;;;4974123;28;20069;-62
2022/03/30 01:53:41;;;;;;;30.95;23.27;;;15.00;64.30;;;;;;4973826;28;20023;-62
2022/03/30 01:56:06;;;;;;;32.20;22.80;;;15.00;64.60;;;;;;4974127;28;20479;-62
2022/03/30 01:58:32;;;;;;;30.88;22.92;;;14.90;64.60;;;;;;4973934;28;20027;-62
2022/03/30 02:00:58;;;;;;;29.73;21.23;;;14.90;64.70;;;;;;4975708;28;20038;-62
2022/03/30 02:03:25;;;;;;;27.70;22.20;;;15.00;64.70;;;;;;4977367;28;20031;-60
2022/03/30 02:05:52;;;;;;;28.35;21.35;;;14.90;64.70;;;;;;4977718;28;20023;-62
2022/03/30 02:08:18;;;;;;;33.78;22.77;;;14.90;64.80;;;;;;4977474;28;20105;-62
2022/03/30 02:10:44;;;;;;;32.47;22.75;;;14.90;64.80;;;;;;4977507;28;20022;-61
2022/03/30 02:13:10;;;;;;;35.15;22.88;;;14.90;64.90;;;;;;4959878;28;20035;-61
2022/03/30 02:15:35;;;;;;;30.95;22.55;;;14.90;65.00;;;;;;4977151;28;20094;-61
2022/03/30 02:18:05;;;;;;;33.95;22.40;;;14.80;65.10;;;;;;4977425;28;20457;-63
2022/03/30 02:20:31;;;;;;;33.33;21.67;;;14.80;65.30;;;;;;4977327;28;20033;-60
2022/03/30 02:22:57;;;;;;;27.67;21.60;;;14.80;65.20;;;;;;4960291;28;20026;-63
2022/03/30 02:25:22;;;;;;;28.00;21.73;;;14.80;65.20;;;;;;4996399;28;20098;-59
2022/03/30 02:27:48;;;;;;;26.48;20.35;;;14.90;65.30;;;;;;4996643;28;20026;-63
2022/03/30 02:30:14;;;;;;;37.50;22.20;;;14.80;65.20;;;;;;4996370;28;20034;-58
2022/03/30 02:32:40;;;;;;;27.40;20.98;;;14.80;65.50;;;;;;4996591;28;20065;-62
2022/03/30 02:35:06;;;;;;;32.60;21.75;;;14.80;65.40;;;;;;4996476;28;20379;-59
2022/03/30 02:37:32;;;;;;;33.85;21.52;;;14.80;65.50;;;;;;4996675;28;20050;-59
2022/03/30 02:39:57;;;;;;;30.83;21.45;;;14.80;65.40;;;;;;4996283;28;20046;-64
2022/03/30 02:42:24;;;;;;;28.15;20.67;;;14.80;65.50;;;;;;4996264;28;20452;-62
2022/03/30 02:44:49;;;;;;;32.33;20.88;;;14.80;65.50;;;;;;4995907;28;20031;-63
2022/03/30 02:47:15;;;;;;;33.15;22.42;;;14.80;65.50;;;;;;4996291;28;20026;-61
2022/03/30 02:49:40;;;;;;;30.13;20.98;;;14.70;65.60;;;;;;4996238;28;20027;-63
2022/03/30 02:52:06;;;;;;;30.42;20.90;;;14.80;65.50;;;;;;4996365;28;20117;-63
2022/03/30 02:54:33;;;;;;;35.45;21.95;;;14.80;65.60;;;;;;4977131;28;20043;-59
2022/03/30 02:56:59;;;;;;;33.35;21.65;;;14.80;65.60;;;;;;4984121;28;20031;-64
2022/03/30 02:59:25;;;;;;;29.75;20.92;;;14.80;65.70;;;;;;4979633;28;20034;-64
2022/03/30 03:01:51;;;;;;;33.53;22.05;;;14.80;65.70;;;;;;4991168;28;20416;-59
2022/03/30 03:04:16;;;;;;;29.00;21.42;;;14.80;65.60;;;;;;4996152;28;20026;-59
2022/03/30 03:06:42;;;;;;;25.83;20.05;;;14.80;65.60;;;;;;4980509;28;20023;-63
2022/03/30 03:09:08;;;;;;;32.13;20.50;;;14.70;65.50;;;;;;4985210;28;20049;-63
2022/03/30 03:11:34;;;;;;;32.90;21.35;;;14.70;65.50;;;;;;4993800;28;20026;-62
2022/03/30 03:14:05;;;;;;;30.05;19.45;;;14.70;65.50;;;;;;4995324;28;20030;-63
2022/03/30 03:16:32;;;;;;;32.13;20.13;;;14.70;65.50;;;;;;4993812;28;20031;-63
2022/03/30 03:18:57;;;;;;;31.65;20.38;;;14.70;65.50;;;;;;4994186;28;20038;-63
2022/03/30 03:21:23;;;;;;;30.20;20.52;;;14.70;65.60;;;;;;4995187;28;20030;-63
2022/03/30 03:23:49;;;;;;;42.90;22.42;;;14.70;65.60;;;;;;4995731;28;20022;-63
2022/03/30 03:26:14;;;;;;;29.17;19.08;;;14.70;66.30;;;;;;4994210;28;20030;-63
2022/03/30 03:28:40;;;;;;;32.58;21.13;;;14.80;65.80;;;;;;4974907;28;20512;-63
2022/03/30 03:31:05;;;;;;;30.40;18.58;;;14.80;65.30;;;;;;4984529;28;20056;-63
2022/03/30 03:33:32;;;;;;;33.28;19.95;;;14.80;65.10;;;;;;4993895;28;20050;-63
2022/03/30 03:35:58;;;;;;;31.52;19.85;;;14.80;65.10;;;;;;4988577;28;20033;-63
2022/03/30 03:38:23;;;;;;;36.33;20.15;;;14.70;65.10;;;;;;4995066;28;20026;-62
2022/03/30 03:40:49;;;;;;;27.17;19.23;;;14.80;65.30;;;;;;4994757;28;20041;-63
2022/03/30 03:43:14;;;;;;;28.30;19.52;;;14.70;65.20;;;;;;4993954;28;20116;-62
2022/03/30 03:45:40;;;;;;;29.20;20.23;;;14.70;65.20;;;;;;4995183;28;20069;-59
2022/03/30 03:48:06;;;;;;;30.75;19.30;;;14.60;65.40;;;;;;4994409;28;20504;-61
2022/03/30 03:50:32;;;;;;;28.20;19.00;;;14.60;65.40;;;;;;4993242;28;20031;-63
2022/03/30 03:52:58;;;;;;;27.77;19.85;;;14.60;65.40;;;;;;4995030;28;20484;-62
2022/03/30 03:55:24;;;;;;;28.83;19.02;;;14.60;65.40;;;;;;4994937;28;20085;-62
2022/03/30 03:57:50;;;;;;;25.58;18.90;;;14.60;65.40;;;;;;4994590;28;20022;-60
2022/03/30 04:00:17;;;;;;;28.58;18.80;;;14.60;65.70;;;;;;4994881;28;20018;-62
2022/03/30 04:02:43;;;;;;;32.55;19.83;;;14.60;65.80;;;;;;4994981;28;20101;-59
2022/03/30 04:05:09;;;;;;;31.95;19.08;;;14.60;65.80;;;;;;4994977;28;21025;-62
2022/03/30 04:07:38;;;;;;;32.05;19.63;;;14.60;66.00;;;;;;4994645;28;20146;-62
2022/03/30 04:10:06;;;;;;;28.80;19.60;;;14.50;66.10;;;;;;4994720;28;20033;-62
2022/03/30 04:12:32;;;;;;;29.35;18.88;;;14.50;66.40;;;;;;4994101;28;20502;-63
2022/03/30 04:14:57;;;;;;;31.05;20.27;;;14.40;66.40;;;;;;4994545;28;20035;-62
2022/03/30 04:17:23;;;;;;;26.02;18.88;;;14.40;66.60;;;;;;4994564;28;20034;-61
2022/03/30 04:19:48;;;;;;;28.65;19.02;;;14.50;66.50;;;;;;4994368;28;20108;-62
2022/03/30 04:22:14;;;;;;;34.40;20.52;;;14.50;66.60;;;;;;4994181;28;20053;-63
2022/03/30 04:24:40;;;;;;;26.80;17.80;;;14.50;66.50;;;;;;4994128;28;20469;-63
2022/03/30 04:27:05;;;;;;;31.20;18.58;;;14.50;66.50;;;;;;4993826;28;20031;-62
2022/03/30 04:29:31;;;;;;;29.92;19.38;;;14.40;66.50;;;;;;4994240;28;20031;-63
2022/03/30 04:31:56;;;;;;;33.53;19.55;;;14.40;66.50;;;;;;4994037;28;20085;-62
2022/03/30 04:34:22;;;;;;;30.73;20.08;;;14.50;66.50;;;;;;4976894;28;20434;-62
2022/03/30 04:36:48;;;;;;;27.40;18.75;;;14.50;66.40;;;;;;4994184;28;20471;-62
2022/03/30 04:39:13;;;;;;;33.20;20.55;;;14.40;66.30;;;;;;4994248;28;20022;-61
2022/03/30 04:41:39;;;;;;;27.27;17.92;;;14.40;66.10;;;;;;4993641;28;20026;-60
2022/03/30 04:44:05;;;;;;;30.98;19.75;;;14.40;66.30;;;;;;4994053;28;20085;-59
2022/03/30 04:46:30;;;;;;;31.45;19.85;;;14.40;66.40;;;;;;4994050;28;20033;-63
2022/03/30 04:48:56;;;;;;;29.67;19.17;;;14.40;66.20;;;;;;4993920;28;20480;-63
2022/03/30 04:51:21;;;;;;;25.52;17.50;;;14.40;66.30;;;;;;4993703;28;20380;-62
2022/03/30 04:53:47;;;;;;;29.25;17.85;;;14.30;66.00;;;;;;4993636;28;20471;-62
2022/03/30 04:56:12;;;;;;;31.95;19.08;;;14.30;65.90;;;;;;4993803;28;20073;-61
2022/03/30 04:58:38;;;;;;;29.13;18.55;;;14.20;65.90;;;;;;4993686;28;20101;-61
2022/03/30 05:01:03;;;;;;;28.20;18.55;;;14.20;66.00;;;;;;4992464;28;20493;-62
2022/03/30 05:03:29;;;;;;;27.73;18.85;;;14.20;66.00;;;;;;4993904;28;20578;-60
2022/03/30 05:05:54;;;;;;;31.00;18.65;;;14.20;66.00;;;;;;4993891;28;20022;-60
2022/03/30 05:08:20;;;;;;;28.88;19.00;;;14.20;66.10;;;;;;4993614;28;20041;-61
2022/03/30 05:10:46;;;;;;;26.08;18.67;;;14.20;66.00;;;;;;4993499;28;20030;-63
2022/03/30 05:13:12;;;;;;;28.80;19.77;;;14.30;65.90;;;;;;4976079;28;20019;-63
2022/03/30 05:15:38;;;;;;;32.90;20.48;;;14.30;65.90;;;;;;4993904;28;20026;-62
2022/03/30 05:18:04;;;;;;;32.47;19.73;;;14.20;65.80;;;;;;4992181;28;20033;-56
2022/03/30 05:20:30;;;;;;;29.13;18.85;;;14.20;65.80;;;;;;4982655;28;20127;-59
2022/03/30 05:22:55;;;;;;;28.15;18.60;;;14.20;65.80;;;;;;4990806;28;20103;-62
2022/03/30 05:25:21;;;;;;;32.75;20.40;;;14.20;65.80;;;;;;4988683;28;20026;-59
2022/03/30 05:27:47;;;;;;;29.60;19.10;;;14.20;65.80;;;;;;4992565;28;20490;-59
2022/03/30 05:30:13;;;;;;;29.88;19.48;;;14.20;65.80;;;;;;4992994;28;20027;-59
2022/03/30 05:32:44;;;;;;;26.88;18.40;;;14.10;65.70;;;;;;4973033;28;20018;-62
2022/03/30 05:35:10;;;;;;;33.03;19.23;;;13.90;65.90;;;;;;4986237;28;20026;-63
2022/03/30 05:37:36;;;;;;;26.80;16.92;;;13.80;66.40;;;;;;4993776;28;20033;-60
2022/03/30 05:40:04;;;;;;;34.33;20.27;;;13.80;67.40;;;;;;4995082;28;20476;-59
2022/03/30 05:42:29;;;;;;;30.63;19.50;;;13.80;66.60;;;;;;4993421;28;20018;-62
2022/03/30 05:44:55;;;;;;;33.47;19.80;;;13.80;66.60;;;;;;4991671;28;20076;-61
2022/03/30 05:47:21;;;;;;;26.73;18.90;;;13.70;66.80;;;;;;4986970;28;20479;-60
2022/03/30 05:49:47;;;;;;;32.20;19.45;;;13.70;66.90;;;;;;4992854;28;20116;-63
2022/03/30 05:52:13;;;;;;;30.40;19.42;;;13.60;66.90;;;;;;4990783;28;20101;-62
2022/03/30 05:54:38;;;;;;;32.78;20.30;;;13.60;66.90;;;;;;4996371;28;20042;-59
2022/03/30 05:57:05;;;;;;;35.08;19.67;;;13.60;66.80;;;;;;4993053;28;20029;-60
2022/03/30 05:59:37;;;;;;;29.95;19.27;;;13.60;66.90;;;;;;4988279;28;20030;-61
2022/03/30 06:02:04;;;;;;;31.92;20.25;;;13.60;67.00;;;;;;4995507;28;20118;-60
2022/03/30 06:04:30;;;;;;;28.23;19.45;;;13.60;67.10;;;;;;4988633;28;20033;-60
2022/03/30 06:06:56;;;;;;;32.13;19.45;;;13.50;67.10;;;;;;4988952;28;20034;-60
2022/03/30 06:09:22;;;;;;;31.52;19.58;;;13.50;67.00;;;;;;4985758;28;20042;-63
2022/03/30 06:11:48;;;;;;;29.70;18.52;;;13.50;67.30;;;;;;4990941;28;20018;-60
2022/03/30 06:14:14;;;;;;;26.73;19.45;;;13.60;67.60;;;;;;4980310;28;20518;-60
2022/03/30 06:16:42;;;;;;;29.45;19.10;;;13.50;66.70;;;;;;4986388;28;20022;-61
2022/03/30 06:19:11;;;;;;;30.52;18.70;;;13.50;66.60;;;;;;4985445;28;20066;-59
2022/03/30 06:21:38;;;;;;;26.30;18.77;;;13.50;66.70;;;;;;4990904;28;20018;-62
2022/03/30 06:24:04;;;;;;;30.13;19.65;;;13.60;66.70;;;;;;4995308;28;20031;-63
2022/03/30 06:26:30;;;;;;;32.22;19.23;;;13.50;66.70;;;;;;4995678;28;20074;-60
2022/03/30 06:28:56;;;;;;;30.20;19.35;;;13.40;66.90;;;;;;4996105;28;20053;-59
2022/03/30 06:31:22;;;;;;;31.48;19.98;;;13.40;67.00;;;;;;4995354;28;20034;-63
2022/03/30 06:33:49;;;;;;;32.88;19.05;;;13.40;67.00;;;;;;4991136;28;20050;-62
2022/03/30 06:36:16;;;;;;;28.20;18.52;;;13.40;66.90;;;;;;4988238;28;20023;-63
2022/03/30 06:38:42;;;;;;;29.45;20.15;;;13.40;67.00;;;;;;4978351;28;20027;-64
2022/03/30 06:41:09;;;;;;;28.50;19.88;;;13.40;67.10;;;;;;4994634;28;20022;-59
2022/03/30 06:43:42;;;;;;;29.90;21.98;;;13.50;67.20;;;;;;4992330;28;20018;-64
2022/03/30 06:46:09;;;;;;;36.10;20.88;;;13.50;67.30;;;;;;4981753;28;20037;-63
2022/03/30 06:48:35;;;;;;;30.08;19.25;;;13.50;67.10;;;;;;4991136;28;20038;-62
2022/03/30 06:51:00;;;;;;;28.38;18.90;;;13.30;67.30;;;;;;4976364;28;20023;-63
2022/03/30 06:53:26;;;;;;;29.02;19.63;;;13.40;67.30;;;;;;4977784;28;20487;-61
2022/03/30 06:55:52;;;;;;;30.65;18.90;;;13.40;67.30;;;;;;4977321;28;20443;-63
2022/03/30 06:58:18;;;;;;;32.25;19.05;;;13.40;67.30;;;;;;4994499;28;20034;-64
2022/03/30 07:00:43;;;;;;;34.20;19.25;;;13.50;67.10;;;;;;4994782;28;20041;-62
2022/03/30 07:03:09;;;;;;;36.17;20.55;;;13.50;66.90;;;;;;4995314;28;20394;-63
2022/03/30 07:05:35;;;;;;;26.20;18.85;;;13.40;66.70;;;;;;4993488;28;20385;-61
2022/03/30 07:10:44;;;;;;;31.33;19.67;;;13.50;67.00;;;;;;4991118;28;20053;-64
2022/03/30 07:13:10;;;;;;;36.28;19.85;;;13.60;67.20;;;;;;4991121;28;20472;-60
2022/03/30 07:15:36;;;;;;;35.30;19.98;;;13.60;66.80;;;;;;4958554;28;20109;-62
2022/03/30 07:18:02;;;;;;;29.52;18.73;;;13.70;66.50;;;;;;4976442;28;20039;-63
2022/03/30 07:20:30;;;;;;;32.83;20.00;;;13.80;66.20;;;;;;5010111;28;20030;-63
2022/03/30 07:22:58;;;;;;;38.47;19.40;;;13.80;66.10;;;;;;4995874;28;20041;-63
2022/03/30 07:25:24;;;;;;;35.22;18.80;;;13.80;65.70;;;;;;4984410;28;20440;-60
2022/03/30 07:27:51;;;;;;;34.72;20.52;;;13.80;65.60;;;;;;4981314;28;20027;-60
2022/03/30 07:30:19;;;;;;;31.75;18.52;;;13.70;65.80;;;;;;4993366;28;20522;-62
2022/03/30 07:32:47;;;;;;;33.15;18.88;;;13.60;65.50;;;;;;4975988;28;20041;-58
2022/03/30 07:35:15;;;;;;;27.35;17.38;;;13.50;65.90;;;;;;4984840;28;20052;-59
2022/03/30 07:37:42;;;;;;;32.80;18.67;;;13.50;65.70;;;;;;4994773;28;20115;-59
2022/03/30 07:40:09;;;;;;;31.52;17.67;;;13.50;65.70;;;;;;4984622;28;20026;-63
2022/03/30 07:42:35;;;;;;;30.27;18.00;;;13.40;66.30;;;;;;4991877;28;20019;-64
2022/03/30 07:45:01;;;;;;;27.00;17.83;;;13.30;66.00;;;;;;4983176;28;20102;-61
2022/03/30 07:47:29;;;;;;;32.85;19.13;;;13.50;65.70;;;;;;4993657;28;20471;-63
2022/03/30 07:49:55;;;;;;;28.88;18.13;;;13.50;65.50;;;;;;4994607;28;20022;-59
2022/03/30 07:52:22;;;;;;;27.17;18.92;;;13.60;66.00;;;;;;4985569;28;20109;-58
2022/03/30 07:54:48;;;;;;;27.00;18.00;;;13.60;65.80;;;;;;4978284;28;20034;-58
2022/03/30 07:57:15;;;;;;;27.65;18.73;;;13.50;65.50;;;;;;4974884;28;20473;-64
2022/03/30 07:59:41;;;;;;;24.30;18.40;;;13.50;65.90;;;;;;4981590;28;20027;-63
2022/03/30 08:02:07;;;;;;;28.55;18.35;;;13.60;66.20;;;;;;4994248;28;20027;-62
2022/03/30 08:04:33;;;;;;;30.77;18.50;;;13.80;65.70;;;;;;4991262;28;20026;-63
2022/03/30 08:06:58;;;;;;;26.55;17.05;;;13.80;65.10;;;;;;4994375;28;20499;-61
2022/03/30 08:09:24;;;;;;;29.80;19.15;;;13.70;64.80;;;;;;4994263;28;20042;-60
2022/03/30 08:11:50;;;;;;;26.10;17.60;;;13.80;65.00;;;;;;4993123;28;20050;-59
2022/03/30 08:14:15;;;;;;;27.10;17.95;;;13.90;64.50;;;;;;4994178;28;20483;-59
2022/03/30 08:16:41;;;;;;;24.40;16.83;;;14.00;64.30;;;;;;4990423;28;20038;-63
2022/03/30 08:19:07;;;;;;;24.88;14.88;;;14.00;64.40;;;;;;4992164;28;20105;-63
2022/03/30 08:24:19;;;;;;;25.42;16.55;;;14.20;63.60;;;;;;5014001;28;20115;-62
2022/03/30 08:26:45;;;;;;;22.67;16.27;;;14.10;62.80;;;;;;5002969;28;20138;-61
2022/03/30 08:29:11;;;;;;;23.55;16.17;;;14.10;63.00;;;;;;4972725;28;20129;-61
2022/03/30 08:31:37;;;;;;;31.27;17.45;;;14.10;63.00;;;;;;4993612;28;20097;-59
2022/03/30 08:34:02;;;;;;;25.95;16.92;;;14.00;63.10;;;;;;5007351;28;20084;-62
2022/03/30 08:36:31;;;;;;;25.35;16.20;;;14.00;63.00;;;;;;5001899;28;20026;-59
2022/03/30 08:38:58;;;;;;;24.58;16.45;;;14.10;63.10;;;;;;4976558;28;20174;-59
2022/03/30 08:41:23;;;;;;;22.27;16.25;;;14.20;62.50;;;;;;4978093;28;20515;-59
2022/03/30 08:43:49;;;;;;;25.30;16.15;;;14.30;62.50;;;;;;4993497;28;20121;-58
2022/03/30 08:46:15;;;;;;;24.85;16.65;;;14.30;62.30;;;;;;4992637;28;20380;-59
2022/03/30 08:48:42;;;;;;;23.83;16.45;;;14.30;62.00;;;;;;4984948;28;20034;-61
2022/03/30 08:51:08;;;;;;;23.98;16.85;;;14.30;61.80;;;;;;4974707;28;20112;-64
2022/03/30 08:53:34;;;;;;;26.15;16.83;;;14.20;61.60;;;;;;4965588;28;20508;-62
2022/03/30 08:56:00;;;;;;;27.67;17.52;;;14.30;62.10;;;;;;4982365;28;20027;-60
2022/03/30 08:58:27;;;;;;;24.50;16.10;;;14.30;61.90;;;;;;4983524;28;20058;-60
2022/03/30 09:00:52;;;;;;;26.90;16.27;;;14.20;62.10;;;;;;4988228;28;20116;-60
2022/03/30 09:03:19;;;;;;;26.30;16.52;;;14.30;62.40;;;;;;4991734;28;20500;-64
2022/03/30 09:05:45;;;;;;;26.02;16.08;;;14.40;62.50;;;;;;4993274;28;20022;-64
2022/03/30 09:08:14;;;;;;;28.92;14.77;;;14.40;62.20;;;;;;4993197;28;20089;-62
2022/03/30 09:10:45;;;;;;;37.97;16.98;;;14.50;62.50;;;;;;4975689;28;20114;-63
2022/03/30 09:13:14;;;;;;;24.13;14.32;;;14.40;61.90;;;;;;4991189;28;20033;-59
2022/03/30 09:15:40;;;;;;;26.83;15.85;;;14.50;61.90;;;;;;4982307;28;20031;-63
2022/03/30 09:18:09;;;;;;;24.92;16.08;;;14.40;61.70;;;;;;4993517;28;20468;-59
2022/03/30 09:20:40;;;;;;;27.00;15.68;;;14.40;61.70;;;;;;4990653;28;20074;-59
2022/03/30 09:23:08;;;;;;;19.25;14.57;;;14.10;62.50;;;;;;4992373;28;20072;-59
2022/03/30 09:25:34;;;;;;;25.40;15.75;;;14.20;63.00;;;;;;4993086;28;20019;-63
2022/03/30 09:28:01;;;;;;;24.00;16.27;;;14.20;62.50;;;;;;4992756;28;20034;-59
2022/03/30 09:30:28;;;;;;;27.02;16.88;;;14.40;62.00;;;;;;4992927;28;20072;-63
2022/03/30 09:32:57;;;;;;;23.45;14.60;;;14.20;61.20;;;;;;4993100;28;20543;-65
2022/03/30 09:35:27;;;;;;;21.58;15.85;;;14.40;61.40;;;;;;4993423;28;20469;-63
2022/03/30 09:38:28;;;;;;;22.85;15.45;;;14.30;61.50;;;;;;4975978;28;20030;-63
2022/03/30 09:40:57;;;;;;;28.02;15.82;;;14.50;62.00;;;;;;4951667;28;20039;-65
2022/03/30 09:43:33;;;;;;;24.65;16.40;;;14.50;61.40;;;;;;4973694;28;20011;-64
2022/03/30 09:46:04;;;;;;;21.05;15.95;;;14.40;60.90;;;;;;4984878;28;20026;-64
2022/03/30 09:48:33;;;;;;;21.30;14.55;;;14.40;61.90;;;;;;4987594;28;20038;-62
2022/03/30 09:51:00;;;;;;;20.63;14.52;;;14.50;62.20;;;;;;4989967;28;20055;-64
2022/03/30 09:53:28;;;;;;;23.58;16.63;;;14.60;61.50;;;;;;4991057;28;20057;-63
2022/03/30 09:56:04;;;;;;;23.20;15.35;;;14.70;60.90;;;;;;4985032;28;20127;-63
2022/03/30 09:58:31;;;;;;;23.35;15.43;;;14.80;61.00;;;;;;4992017;28;20472;-63
2022/03/30 10:01:17;;;;;;;22.20;15.57;;;14.90;61.00;;;;;;4992522;28;20022;-63
2022/03/30 10:03:59;;;;;;;21.38;14.32;;;14.90;61.00;;;;;;4988330;28;20027;-64
2022/03/30 10:06:36;;;;;;;22.73;14.55;;;15.00;61.20;;;;;;4990482;28;20030;-64
2022/03/30 10:09:03;;;;;;;19.80;15.20;;;14.90;60.70;;;;;;4992392;28;20476;-64
2022/03/30 10:11:29;;;;;;;22.83;14.30;;;14.80;59.70;;;;;;4986531;28;20048;-63
2022/03/30 10:13:58;;;;;;;21.92;14.98;;;14.80;60.50;;;;;;4985648;28;20081;-63
2022/03/30 10:16:24;;;;;;;20.88;12.52;;;14.80;60.50;;;;;;4985669;28;20114;-59
2022/03/30 10:18:51;;;;;;;20.45;13.43;;;15.00;60.70;;;;;;4987206;28;20041;-64
2022/03/30 10:22:01;;;;;;;22.15;15.25;;;15.00;59.70;;;;;;4986513;28;20077;-63
2022/03/30 10:24:45;;;;;;;25.15;16.48;;;14.90;59.30;;;;;;4987752;28;20113;-62
2022/03/30 10:27:27;;;;;;;24.02;14.45;;;14.90;58.80;;;;;;4998102;28;20034;-61
2022/03/30 10:29:55;;;;;;;24.40;15.07;;;14.90;59.70;;;;;;4987302;28;20097;-64
2022/03/30 10:32:23;;;;;;;23.08;14.52;;;15.00;59.10;;;;;;4986359;28;20023;-59
2022/03/30 10:35:02;;;;;;;23.00;16.05;;;15.00;59.30;;;;;;4987275;28;20037;-61
2022/03/30 10:37:40;;;;;;;23.63;15.25;;;15.10;59.20;;;;;;4990206;28;20014;-63
2022/03/30 10:40:10;;;;;;;26.00;14.15;;;15.10;59.10;;;;;;4986834;28;20579;-62
2022/03/30 10:42:47;;;;;;;27.02;15.73;;;15.20;59.40;;;;;;4989643;28;20396;-60
2022/03/30 10:45:28;;;;;;;22.02;15.10;;;15.20;59.00;;;;;;4993231;28;20109;-64
2022/03/30 10:48:19;;;;;;;23.17;15.40;;;15.30;58.80;;;;;;4992608;28;20045;-64
2022/03/30 10:50:48;;;;;;;25.13;15.82;;;15.40;58.90;;;;;;4986895;28;20026;-64
2022/03/30 10:53:32;;;;;;;23.33;15.60;;;15.40;58.20;;;;;;5001214;28;20027;-62
2022/03/30 10:56:18;;;;;;;21.17;15.00;;;15.40;58.20;;;;;;4973959;28;20023;-60
2022/03/30 10:58:49;;;;;;;22.65;14.48;;;15.40;58.90;;;;;;4989706;28;20027;-61
2022/03/30 11:01:19;;;;;;;21.80;15.20;;;15.20;58.50;;;;;;4996121;28;20035;-63
2022/03/30 11:03:57;;;;;;;36.97;23.05;;;15.20;58.40;;;;;;4982401;28;20033;-63
2022/03/30 11:06:23;;;;;;;29.85;16.50;;;15.20;58.80;;;;;;4989382;28;20023;-63
2022/03/30 11:08:48;;;;;;;24.90;16.73;;;15.30;59.10;;;;;;4994483;28;20562;-64
2022/03/30 11:11:39;;;;;;;23.23;15.95;;;15.20;58.90;;;;;;4991076;28;20027;-62
2022/03/30 11:14:24;;;;;;;21.63;15.30;;;15.30;58.50;;;;;;4989649;28;20116;-61
2022/03/30 11:16:57;;;;;;;23.08;14.98;;;15.30;59.30;;;;;;4992318;28;20053;-62
2022/03/30 11:19:29;;;;;;;26.48;14.80;;;15.40;59.30;;;;;;4983854;28;20022;-65
2022/03/30 11:22:36;;;;;;;24.33;15.73;;;15.50;59.30;;;;;;4990655;28;20156;-64
2022/03/30 11:25:23;;;;;;;24.15;15.25;;;15.60;59.60;;;;;;4975728;28;20108;-64
2022/03/30 11:27:58;;;;;;;23.88;16.42;;;15.50;58.00;;;;;;4989993;28;20122;-64
2022/03/30 11:30:28;;;;;;;22.73;16.63;;;15.50;58.50;;;;;;4989456;28;20064;-63
2022/03/30 11:33:19;;;;;;;24.83;16.58;;;15.50;58.50;;;;;;4988678;28;20061;-63
2022/03/30 11:35:48;;;;;;;22.05;14.75;;;15.60;58.30;;;;;;4987188;28;20503;-62
2022/03/30 11:38:26;;;;;;;21.63;15.27;;;15.60;57.80;;;;;;4995603;28;20026;-64
2022/03/30 11:40:58;;;;;;;25.30;16.15;;;15.70;58.10;;;;;;4988619;28;20077;-63
2022/03/30 11:43:24;;;;;;;20.35;14.90;;;15.60;58.40;;;;;;4990271;28;20487;-60
2022/03/30 11:45:53;;;;;;;23.73;16.70;;;15.60;58.70;;;;;;4984407;28;20054;-62
2022/03/30 11:48:19;;;;;;;20.17;14.85;;;15.70;59.20;;;;;;4988731;28;20065;-64
2022/03/30 11:50:58;;;;;;;22.15;14.98;;;15.70;58.40;;;;;;4992640;28;20023;-62
2022/03/30 11:53:32;;;;;;;20.48;14.07;;;15.80;58.70;;;;;;4987066;28;20491;-64
2022/03/30 11:56:05;;;;;;;22.15;14.50;;;15.90;58.00;;;;;;4989204;28;20113;-63
2022/03/30 11:58:46;;;;;;;22.42;14.68;;;15.80;57.20;;;;;;4992906;28;20115;-60
2022/03/30 12:01:15;;;;;;;17.85;12.88;;;15.90;58.20;;;;;;4990179;28;20038;-64
2022/03/30 12:03:42;;;;;;;21.67;15.07;;;15.90;57.40;;;;;;4992449;28;20022;-64
2022/03/30 12:06:09;;;;;;;18.25;14.68;;;16.00;57.60;;;;;;4992191;28;20058;-63
2022/03/30 12:08:46;;;;;;;18.65;13.30;;;16.00;57.40;;;;;;4991102;28;20045;-61
2022/03/30 12:11:13;;;;;;;23.40;14.93;;;16.10;57.40;;;;;;4983118;28;20026;-61
2022/03/30 12:13:39;;;;;;;21.23;14.35;;;16.00;56.10;;;;;;4985637;28;20430;-63
2022/03/30 12:16:13;;;;;;;21.75;14.88;;;16.00;56.30;;;;;;4988166;28;20036;-64
2022/03/30 12:18:50;;;;;;;19.35;14.50;;;16.00;55.90;;;;;;4986114;28;20032;-63
2022/03/30 12:21:20;;;;;;;25.23;15.40;;;16.00;56.50;;;;;;4987340;28;20058;-59
2022/03/30 12:24:04;;;;;;;22.98;14.55;;;16.10;56.70;;;;;;4988692;28;20023;-63
2022/03/30 12:26:34;;;;;;;21.67;14.70;;;16.10;56.90;;;;;;4991403;28;20034;-62
2022/03/30 12:29:08;;;;;;;18.63;13.98;;;16.10;56.60;;;;;;4988727;28;20046;-60
2022/03/30 12:31:36;;;;;;;21.85;13.73;;;16.20;55.70;;;;;;4987416;28;20032;-64
2022/03/30 12:34:13;;;;;;;17.67;12.55;;;16.20;55.10;;;;;;4988692;28;20447;-59
2022/03/30 12:36:48;;;;;;;19.73;14.75;;;16.20;54.80;;;;;;4990186;28;20025;-64
2022/03/30 12:39:25;;;;;;;20.98;13.45;;;16.30;55.00;;;;;;4962934;28;20472;-61
2022/03/30 12:42:04;;;;;;;17.20;12.48;;;16.20;54.10;;;;;;4988445;28;20073;-60